Time,TemperatureF,DewpointF,PressureIn,WindDirection,WindDirectionDegrees,WindSpeedMPH,WindSpeedGustMPH,Humidity,HourlyPrecipIn,Conditions,Clouds,dailyrainin,SoftwareType,DateUTC
2013-01-13 00:00:00,37.4,36.9,29.71,WSW,240,0.0,0.0,98,0.00,,,0.00,VWS V14.01,2013-01-13 05:00:00,
2013-01-13 00:02:00,37.2,36.7,29.74,WSW,240,0.0,0.0,98,0.00,,,0.00,VWS V14.01,2013-01-13 05:02:00,
2013-01-13 00:03:00,37.0,36.5,29.74,WSW,240,0.0,0.0,98,0.00,,,0.00,VWS V14.01,2013-01-13 05:03:00,
2013-01-13 00:08:00,36.9,36.3,29.74,WSW,240,0.0,0.0,98,0.00,,,0.00,VWS V14.01,2013-01-13 05:08:00,
2013-01-13 00:13:00,36.9,36.3,29.74,WSW,240,0.0,0.0,98,0.00,,,0.00,VWS V14.01,2013-01-13 05:13:00,
2013-01-13 00:19:00,37.0,36.5,29.74,WSW,240,0.0,0.0,98,0.00,,,0.00,VWS V14.01,2013-01-13 05:19:00,
2013-01-13 00:24:00,37.0,36.5,29.74,WSW,240,0.0,0.0,98,0.00,,,0.00,VWS V14.01,2013-01-13 05:24:00,
2013-01-13 00:29:00,37.0,36.5,29.74,WSW,240,0.0,0.0,98,0.00,,,0.00,VWS V14.01,2013-01-13 05:29:00,
2013-01-13 00:34:00,37.4,36.9,29.74,WSW,240,0.0,0.0,98,0.00,,,0.00,VWS V14.01,2013-01-13 05:34:00,
2013-01-13 00:39:00,38.1,37.6,29.74,SW,229,0.0,0.0,98,0.00,,,0.00,VWS V14.01,2013-01-13 05:39:00,
2013-01-13 00:44:00,38.5,38.0,29.74,SW,226,0.0,0.0,98,0.00,,,0.00,VWS V14.01,2013-01-13 05:44:00,
2013-01-13 00:49:00,38.8,38.3,29.71,SW,225,0.0,0.0,98,0.00,,,0.00,VWS V14.01,2013-01-13 05:49:00,
2013-01-13 00:54:00,39.2,38.7,29.71,SSW,212,0.0,0.0,98,0.00,,,0.00,VWS V14.01,2013-01-13 05:54:00,
2013-01-13 00:59:00,39.2,38.7,29.71,SW,234,0.0,0.0,98,0.00,,,0.00,VWS V14.01,2013-01-13 05:59:00,
2013-01-13 01:04:00,39.2,38.7,29.68,WSW,257,5.4,5.4,98,0.00,,,0.00,VWS V14.01,2013-01-13 06:04:00,
2013-01-13 01:09:00,39.2,38.7,29.68,WSW,242,4.5,4.5,98,0.00,,,0.00,VWS V14.01,2013-01-13 06:09:00,
2013-01-13 01:14:00,39.2,38.7,29.68,WSW,237,4.5,4.5,98,0.00,,,0.00,VWS V14.01,2013-01-13 06:14:00,
2013-01-13 01:19:00,39.2,38.7,29.71,WSW,251,5.4,5.4,98,0.00,,,0.00,VWS V14.01,2013-01-13 06:19:00,
2013-01-13 01:25:00,39.4,38.9,29.71,West,260,7.2,7.2,98,0.00,,,0.00,VWS V14.01,2013-01-13 06:25:00,
2013-01-13 01:30:00,39.4,38.9,29.71,WSW,258,9.8,9.8,98,0.00,,,0.00,VWS V14.01,2013-01-13 06:30:00,
2013-01-13 01:35:00,39.6,39.0,29.71,WSW,246,5.4,5.4,98,0.00,,,0.00,VWS V14.01,2013-01-13 06:35:00,
2013-01-13 01:40:00,39.4,38.9,29.71,West,266,0.0,3.1,98,0.00,,,0.00,VWS V14.01,2013-01-13 06:40:00,
2013-01-13 01:45:00,39.4,38.9,29.71,WSW,247,7.2,7.2,98,0.00,,,0.00,VWS V14.01,2013-01-13 06:45:00,
2013-01-13 01:50:00,39.6,39.0,29.71,WSW,244,5.4,5.4,98,0.00,,,0.00,VWS V14.01,2013-01-13 06:50:00,
2013-01-13 01:55:00,39.7,39.2,29.71,WSW,243,12.5,12.5,98,0.00,,,0.00,VWS V14.01,2013-01-13 06:55:00,
2013-01-13 02:00:00,39.9,39.4,29.71,WSW,256,10.7,10.7,98,0.00,,,0.00,VWS V14.01,2013-01-13 07:00:00,
2013-01-13 02:05:00,39.9,39.4,29.71,WSW,248,0.0,3.1,98,0.00,,,0.00,VWS V14.01,2013-01-13 07:05:00,
2013-01-13 02:10:00,39.7,39.2,29.71,WSW,252,5.4,5.4,98,0.00,,,0.00,VWS V14.01,2013-01-13 07:10:00,
2013-01-13 02:15:00,39.7,39.2,29.71,West,259,6.3,6.3,98,0.00,,,0.00,VWS V14.01,2013-01-13 07:15:00,
2013-01-13 02:20:00,39.7,39.2,29.71,WSW,249,5.4,5.4,98,0.00,,,0.00,VWS V14.01,2013-01-13 07:20:00,
2013-01-13 02:25:00,39.7,39.2,29.71,WSW,245,0.0,3.1,98,0.00,,,0.00,VWS V14.01,2013-01-13 07:25:00,
2013-01-13 02:31:00,39.7,39.2,29.71,WNW,282,0.0,0.0,98,0.00,,,0.00,VWS V14.01,2013-01-13 07:31:00,
2013-01-13 02:36:00,39.7,39.2,29.74,West,264,7.2,7.2,98,0.00,,,0.00,VWS V14.01,2013-01-13 07:36:00,
2013-01-13 02:41:00,39.7,39.2,29.74,WSW,245,7.2,7.2,98,0.00,,,0.00,VWS V14.01,2013-01-13 07:41:00,
2013-01-13 02:46:00,39.6,39.0,29.74,WSW,244,0.0,0.0,98,0.00,,,0.00,VWS V14.01,2013-01-13 07:46:00,
2013-01-13 02:51:00,39.7,39.2,29.71,WSW,247,4.5,4.5,98,0.00,,,0.00,VWS V14.01,2013-01-13 07:51:00,
2013-01-13 02:56:00,39.7,39.2,29.71,WSW,241,0.0,0.0,98,0.00,,,0.00,VWS V14.01,2013-01-13 07:56:00,
2013-01-13 03:01:00,39.6,39.0,29.71,WSW,242,0.0,0.0,98,0.00,,,0.00,VWS V14.01,2013-01-13 08:01:00,
2013-01-13 03:06:00,39.4,38.9,29.71,SW,217,0.0,0.0,98,0.00,,,0.00,VWS V14.01,2013-01-13 08:06:00,
2013-01-13 03:11:00,39.4,38.9,29.71,WSW,245,0.0,0.0,98,0.00,,,0.00,VWS V14.01,2013-01-13 08:11:00,
2013-01-13 03:16:00,39.4,38.9,29.71,WSW,249,6.3,6.3,98,0.00,,,0.00,VWS V14.01,2013-01-13 08:16:00,
2013-01-13 03:21:00,39.4,38.9,29.71,WSW,244,0.0,0.0,98,0.00,,,0.00,VWS V14.01,2013-01-13 08:21:00,
2013-01-13 03:26:00,39.4,38.9,29.71,WSW,244,0.0,0.0,98,0.00,,,0.00,VWS V14.01,2013-01-13 08:26:00,
2013-01-13 03:31:00,39.2,38.7,29.71,WSW,244,0.0,0.0,98,0.00,,,0.00,VWS V14.01,2013-01-13 08:31:00,
2013-01-13 03:37:00,39.4,38.9,29.71,WSW,251,0.0,0.0,98,0.00,,,0.00,VWS V14.01,2013-01-13 08:37:00,
2013-01-13 03:42:00,39.2,38.7,29.71,WSW,251,0.0,0.0,98,0.00,,,0.00,VWS V14.01,2013-01-13 08:42:00,
2013-01-13 03:47:00,39.0,38.5,29.74,WSW,251,0.0,0.0,98,0.00,,,0.00,VWS V14.01,2013-01-13 08:47:00,
2013-01-13 03:52:00,39.0,38.5,29.74,WSW,251,0.0,0.0,98,0.00,,,0.00,VWS V14.01,2013-01-13 08:52:00,
2013-01-13 03:57:00,39.0,38.5,29.74,WSW,240,0.0,0.0,98,0.00,,,0.00,VWS V14.01,2013-01-13 08:57:00,
2013-01-13 04:02:00,39.2,38.7,29.71,WNW,286,0.0,0.0,98,0.00,,,0.00,VWS V14.01,2013-01-13 09:02:00,
2013-01-13 04:07:00,39.0,38.5,29.71,West,261,0.0,0.0,98,0.00,,,0.00,VWS V14.01,2013-01-13 09:07:00,
2013-01-13 04:12:00,39.2,38.7,29.71,SW,234,6.3,6.3,98,0.00,,,0.00,VWS V14.01,2013-01-13 09:12:00,
2013-01-13 04:17:00,39.2,38.7,29.71,WSW,251,0.0,0.0,98,0.00,,,0.00,VWS V14.01,2013-01-13 09:17:00,
2013-01-13 04:22:00,38.8,38.3,29.71,WSW,256,0.0,0.0,98,0.00,,,0.00,VWS V14.01,2013-01-13 09:22:00,
2013-01-13 04:27:00,38.8,38.3,29.71,WSW,255,0.0,0.0,98,0.00,,,0.00,VWS V14.01,2013-01-13 09:27:00,
2013-01-13 04:32:00,38.8,38.3,29.71,WSW,256,0.0,0.0,98,0.00,,,0.00,VWS V14.01,2013-01-13 09:32:00,
2013-01-13 04:38:00,38.8,38.3,29.71,WSW,247,0.0,2.7,98,0.00,,,0.00,VWS V14.01,2013-01-13 09:38:00,
2013-01-13 04:43:00,38.7,38.2,29.71,WSW,249,0.0,0.0,98,0.00,,,0.00,VWS V14.01,2013-01-13 09:43:00,
2013-01-13 04:48:00,39.0,38.5,29.71,WSW,252,0.0,0.0,98,0.00,,,0.00,VWS V14.01,2013-01-13 09:48:00,
2013-01-13 04:53:00,38.8,38.3,29.71,WSW,252,0.0,0.0,98,0.00,,,0.00,VWS V14.01,2013-01-13 09:53:00,
2013-01-13 04:58:00,38.7,38.2,29.71,WSW,254,0.0,0.0,98,0.00,,,0.00,VWS V14.01,2013-01-13 09:58:00,
2013-01-13 05:03:00,38.5,38.0,29.71,WSW,254,0.0,0.0,98,0.00,,,0.00,VWS V14.01,2013-01-13 10:03:00,
2013-01-13 05:08:00,38.1,37.6,29.71,WSW,254,0.0,0.0,98,0.00,,,0.00,VWS V14.01,2013-01-13 10:08:00,
2013-01-13 05:13:00,38.1,37.6,29.71,WSW,240,0.0,0.0,98,0.00,,,0.00,VWS V14.01,2013-01-13 10:13:00,
2013-01-13 05:18:00,37.9,37.4,29.71,WSW,240,0.0,0.0,98,0.00,,,0.00,VWS V14.01,2013-01-13 10:18:00,
2013-01-13 05:23:00,37.9,37.4,29.71,WSW,244,5.4,5.4,98,0.00,,,0.00,VWS V14.01,2013-01-13 10:23:00,
2013-01-13 05:28:00,37.8,37.2,29.71,WSW,253,0.0,0.0,98,0.00,,,0.00,VWS V14.01,2013-01-13 10:28:00,
2013-01-13 05:33:00,37.6,37.1,29.74,WSW,253,0.0,0.0,98,0.00,,,0.00,VWS V14.01,2013-01-13 10:33:00,
2013-01-13 05:38:00,37.6,37.1,29.74,WSW,253,0.0,0.0,98,0.00,,,0.00,VWS V14.01,2013-01-13 10:38:00,
2013-01-13 05:44:00,37.8,37.2,29.74,WSW,258,0.0,0.0,98,0.00,,,0.00,VWS V14.01,2013-01-13 10:44:00,
2013-01-13 05:49:00,37.9,37.4,29.74,WSW,258,0.0,0.0,98,0.00,,,0.00,VWS V14.01,2013-01-13 10:49:00,
2013-01-13 05:54:00,37.9,37.4,29.74,WSW,258,0.0,0.0,98,0.00,,,0.00,VWS V14.01,2013-01-13 10:54:00,
2013-01-13 05:59:00,37.8,37.2,29.74,WSW,247,0.0,0.0,98,0.00,,,0.00,VWS V14.01,2013-01-13 10:59:00,
2013-01-13 06:04:00,37.4,36.9,29.74,WSW,247,0.0,0.0,98,0.00,,,0.00,VWS V14.01,2013-01-13 11:04:00,
2013-01-13 06:09:00,37.4,36.9,29.74,WSW,247,0.0,0.0,98,0.00,,,0.00,VWS V14.01,2013-01-13 11:09:00,
2013-01-13 06:14:00,37.4,36.9,29.74,WSW,246,0.0,0.0,98,0.00,,,0.00,VWS V14.01,2013-01-13 11:14:00,
2013-01-13 06:19:00,37.4,36.9,29.74,WSW,250,0.0,0.0,98,0.00,,,0.00,VWS V14.01,2013-01-13 11:19:00,
2013-01-13 06:24:00,37.4,36.9,29.74,SW,228,0.0,0.0,98,0.00,,,0.00,VWS V14.01,2013-01-13 11:24:00,
2013-01-13 06:29:00,37.4,36.9,29.74,SW,228,0.0,0.0,98,0.00,,,0.00,VWS V14.01,2013-01-13 11:29:00,
2013-01-13 06:34:00,37.6,37.1,29.74,SW,228,0.0,0.0,98,0.00,,,0.00,VWS V14.01,2013-01-13 11:34:00,
2013-01-13 06:39:00,37.6,37.1,29.74,SW,228,0.0,0.0,98,0.00,,,0.00,VWS V14.01,2013-01-13 11:39:00,
2013-01-13 06:44:00,37.4,36.9,29.74,SW,228,0.0,0.0,98,0.00,,,0.00,VWS V14.01,2013-01-13 11:44:00,
2013-01-13 06:49:00,37.2,36.7,29.74,SW,228,0.0,0.0,98,0.00,,,0.00,VWS V14.01,2013-01-13 11:49:00,
2013-01-13 06:55:00,37.4,36.9,29.74,SW,228,0.0,0.0,98,0.00,,,0.00,VWS V14.01,2013-01-13 11:55:00,
2013-01-13 07:00:00,37.4,36.9,29.74,SW,228,0.0,0.0,98,0.00,,,0.00,VWS V14.01,2013-01-13 12:00:00,
2013-01-13 07:05:00,37.0,36.5,29.74,SW,228,0.0,0.0,98,0.00,,,0.00,VWS V14.01,2013-01-13 12:05:00,
2013-01-13 07:10:00,36.9,36.3,29.74,SW,228,0.0,0.0,98,0.00,,,0.00,VWS V14.01,2013-01-13 12:10:00,
2013-01-13 07:15:00,36.9,36.3,29.74,SW,228,0.0,0.0,98,0.00,,,0.00,VWS V14.01,2013-01-13 12:15:00,
2013-01-13 07:20:00,36.9,36.3,29.71,SW,228,0.0,0.0,98,0.00,,,0.00,VWS V14.01,2013-01-13 12:20:00,
2013-01-13 07:25:00,36.9,36.3,29.71,WSW,245,6.3,6.3,98,0.00,,,0.00,VWS V14.01,2013-01-13 12:25:00,
2013-01-13 07:30:00,37.2,36.7,29.71,WSW,251,7.2,7.2,98,0.00,,,0.00,VWS V14.01,2013-01-13 12:30:00,
2013-01-13 07:35:00,37.6,37.1,29.77,WSW,250,0.0,0.0,98,0.00,,,0.00,VWS V14.01,2013-01-13 12:35:00,
2013-01-13 07:40:00,37.6,37.1,29.77,WSW,250,0.0,0.0,98,0.00,,,0.00,VWS V14.01,2013-01-13 12:40:00,
2013-01-13 07:45:00,37.6,37.1,29.77,WSW,250,0.0,0.0,98,0.00,,,0.00,VWS V14.01,2013-01-13 12:45:00,
2013-01-13 07:50:00,37.4,36.9,29.74,WSW,250,0.0,0.0,98,0.00,,,0.00,VWS V14.01,2013-01-13 12:50:00,
2013-01-13 07:56:00,37.6,37.1,29.74,WSW,250,0.0,0.0,98,0.00,,,0.00,VWS V14.01,2013-01-13 12:56:00,
2013-01-13 08:01:00,37.4,36.9,29.74,WSW,250,0.0,0.0,98,0.00,,,0.00,VWS V14.01,2013-01-13 13:01:00,
2013-01-13 08:06:00,37.4,36.9,29.74,WSW,250,0.0,0.0,98,0.00,,,0.00,VWS V14.01,2013-01-13 13:06:00,
2013-01-13 08:11:00,37.2,36.7,29.74,WSW,250,0.0,0.0,98,0.00,,,0.00,VWS V14.01,2013-01-13 13:11:00,
2013-01-13 08:16:00,37.0,36.5,29.74,WSW,250,0.0,0.0,98,0.00,,,0.00,VWS V14.01,2013-01-13 13:16:00,
2013-01-13 08:21:00,37.2,36.7,29.74,WSW,250,0.0,0.0,98,0.00,,,0.00,VWS V14.01,2013-01-13 13:21:00,
2013-01-13 08:26:00,37.2,36.7,29.74,WSW,250,0.0,0.0,98,0.00,,,0.00,VWS V14.01,2013-01-13 13:26:00,
2013-01-13 08:31:00,37.2,36.7,29.74,WSW,250,0.0,0.0,98,0.00,,,0.00,VWS V14.01,2013-01-13 13:31:00,
2013-01-13 08:36:00,37.2,36.7,29.74,WSW,250,0.0,0.0,98,0.00,,,0.00,VWS V14.01,2013-01-13 13:36:00,
2013-01-13 08:41:00,37.4,36.9,29.74,WSW,250,0.0,0.0,98,0.00,,,0.00,VWS V14.01,2013-01-13 13:41:00,
2013-01-13 08:46:00,37.8,37.2,29.74,WSW,250,0.0,0.0,98,0.00,,,0.00,VWS V14.01,2013-01-13 13:46:00,
2013-01-13 08:51:00,37.9,37.4,29.74,WSW,250,0.0,0.0,98,0.00,,,0.00,VWS V14.01,2013-01-13 13:51:00,
2013-01-13 08:56:00,38.1,37.6,29.74,WSW,250,0.0,0.0,98,0.00,,,0.00,VWS V14.01,2013-01-13 13:56:00,
2013-01-13 09:01:00,38.1,37.6,29.74,WSW,250,0.0,0.0,98,0.00,,,0.00,VWS V14.01,2013-01-13 14:01:00,
2013-01-13 09:06:00,38.1,37.6,29.74,WSW,250,0.0,0.0,98,0.00,,,0.00,VWS V14.01,2013-01-13 14:06:00,
2013-01-13 09:12:00,38.1,37.6,29.74,WSW,250,0.0,0.0,98,0.00,,,0.00,VWS V14.01,2013-01-13 14:12:00,
2013-01-13 09:17:00,38.1,37.6,29.77,WSW,250,0.0,0.0,98,0.00,,,0.00,VWS V14.01,2013-01-13 14:17:00,
2013-01-13 09:22:00,38.3,37.8,29.77,WSW,250,0.0,0.0,98,0.00,,,0.00,VWS V14.01,2013-01-13 14:22:00,
2013-01-13 09:27:00,38.5,38.0,29.77,WSW,250,0.0,0.0,98,0.00,,,0.00,VWS V14.01,2013-01-13 14:27:00,
2013-01-13 09:32:00,38.7,38.2,29.77,WSW,250,0.0,0.0,98,0.00,,,0.00,VWS V14.01,2013-01-13 14:32:00,
2013-01-13 09:37:00,38.7,38.2,29.77,WSW,251,0.0,0.0,98,0.00,,,0.00,VWS V14.01,2013-01-13 14:37:00,
2013-01-13 09:42:00,39.0,38.5,29.77,WSW,247,0.0,0.0,98,0.00,,,0.00,VWS V14.01,2013-01-13 14:42:00,
2013-01-13 09:47:00,39.2,38.7,29.77,WSW,239,0.0,0.0,98,0.00,,,0.00,VWS V14.01,2013-01-13 14:47:00,
2013-01-13 09:52:00,39.2,38.7,29.77,WSW,250,0.0,2.2,98,0.00,,,0.00,VWS V14.01,2013-01-13 14:52:00,
2013-01-13 09:57:00,39.4,38.9,29.77,WSW,243,0.0,0.0,98,0.00,,,0.00,VWS V14.01,2013-01-13 14:57:00,
2013-01-13 10:02:00,39.4,38.9,29.77,WSW,253,5.4,5.4,98,0.00,,,0.00,VWS V14.01,2013-01-13 15:02:00,
2013-01-13 10:08:00,39.4,38.9,29.77,WSW,246,0.0,0.0,98,0.00,,,0.00,VWS V14.01,2013-01-13 15:08:00,
2013-01-13 10:13:00,39.4,38.9,29.77,WSW,250,0.0,0.0,98,0.00,,,0.00,VWS V14.01,2013-01-13 15:13:00,
2013-01-13 10:18:00,39.4,38.9,29.74,WSW,248,0.0,0.0,98,0.00,,,0.00,VWS V14.01,2013-01-13 15:18:00,
2013-01-13 10:23:00,39.6,39.0,29.74,WSW,253,0.0,0.0,98,0.00,,,0.00,VWS V14.01,2013-01-13 15:23:00,
2013-01-13 10:28:00,39.4,38.9,29.74,WSW,248,6.3,6.3,98,0.00,,,0.00,VWS V14.01,2013-01-13 15:28:00,
2013-01-13 10:33:00,39.4,38.9,29.74,WSW,246,0.0,0.0,98,0.00,,,0.00,VWS V14.01,2013-01-13 15:33:00,
2013-01-13 10:38:00,39.4,38.9,29.74,WSW,248,4.5,4.5,98,0.00,,,0.00,VWS V14.01,2013-01-13 15:38:00,
2013-01-13 10:43:00,39.4,38.9,29.74,WSW,244,0.0,0.0,98,0.00,,,0.00,VWS V14.01,2013-01-13 15:43:00,
2013-01-13 10:48:00,39.2,38.7,29.74,WSW,251,0.0,0.0,98,0.00,,,0.00,VWS V14.01,2013-01-13 15:48:00,
2013-01-13 10:53:00,39.2,38.7,29.74,SW,227,0.0,0.0,98,0.00,,,0.00,VWS V14.01,2013-01-13 15:53:00,
2013-01-13 10:59:00,39.4,38.9,29.74,WSW,243,0.0,0.0,98,0.00,,,0.00,VWS V14.01,2013-01-13 15:59:00,
2013-01-13 11:04:00,39.6,39.0,29.74,WSW,238,0.0,0.0,98,0.00,,,0.00,VWS V14.01,2013-01-13 16:04:00,
2013-01-13 11:09:00,39.7,39.2,29.74,WSW,244,0.0,0.0,98,0.00,,,0.00,VWS V14.01,2013-01-13 16:09:00,
2013-01-13 11:14:00,39.7,39.2,29.74,WSW,244,0.0,0.0,98,0.00,,,0.00,VWS V14.01,2013-01-13 16:14:00,
2013-01-13 11:19:00,39.6,39.0,29.74,WSW,243,0.0,0.0,98,0.00,,,0.00,VWS V14.01,2013-01-13 16:19:00,
2013-01-13 11:24:00,39.7,39.2,29.74,West,272,6.3,6.3,98,0.00,,,0.00,VWS V14.01,2013-01-13 16:24:00,
2013-01-13 11:29:00,39.7,39.2,29.74,West,261,0.0,0.0,98,0.00,,,0.00,VWS V14.01,2013-01-13 16:29:00,
2013-01-13 11:34:00,39.9,39.4,29.74,WSW,256,0.0,0.0,98,0.00,,,0.00,VWS V14.01,2013-01-13 16:34:00,
2013-01-13 11:39:00,39.9,39.4,29.74,WSW,249,0.0,0.0,98,0.00,,,0.00,VWS V14.01,2013-01-13 16:39:00,
2013-01-13 11:44:00,39.9,39.4,29.74,WSW,253,5.4,5.4,98,0.00,,,0.00,VWS V14.01,2013-01-13 16:44:00,
2013-01-13 11:49:00,39.9,39.4,29.74,WSW,249,0.0,0.0,98,0.00,,,0.00,VWS V14.01,2013-01-13 16:49:00,
2013-01-13 11:54:00,40.1,39.6,29.74,WSW,249,0.0,0.0,98,0.00,,,0.00,VWS V14.01,2013-01-13 16:54:00,
2013-01-13 12:00:00,40.3,39.8,29.74,WSW,249,0.0,0.0,98,0.00,,,0.00,VWS V14.01,2013-01-13 17:00:00,
2013-01-13 12:05:00,40.5,39.9,29.71,WSW,246,0.0,2.2,98,0.00,,,0.00,VWS V14.01,2013-01-13 17:05:00,
2013-01-13 12:10:00,40.5,39.9,29.71,WSW,246,0.0,0.0,98,0.00,,,0.00,VWS V14.01,2013-01-13 17:10:00,
2013-01-13 12:15:00,40.6,40.1,29.71,WSW,248,0.0,0.0,98,0.00,,,0.00,VWS V14.01,2013-01-13 17:15:00,
2013-01-13 12:20:00,40.6,40.1,29.71,SW,235,0.0,2.2,98,0.00,,,0.00,VWS V14.01,2013-01-13 17:20:00,
2013-01-13 12:25:00,40.8,40.3,29.71,WSW,237,0.0,0.0,98,0.00,,,0.00,VWS V14.01,2013-01-13 17:25:00,
2013-01-13 12:30:00,41.0,40.5,29.71,WSW,245,0.0,0.0,98,0.00,,,0.00,VWS V14.01,2013-01-13 17:30:00,
2013-01-13 12:35:00,40.8,40.3,29.71,WSW,246,0.0,0.0,98,0.00,,,0.00,VWS V14.01,2013-01-13 17:35:00,
2013-01-13 12:40:00,41.0,40.5,29.71,SW,215,0.0,0.0,98,0.00,,,0.00,VWS V14.01,2013-01-13 17:40:00,
2013-01-13 12:45:00,41.0,40.5,29.71,WSW,250,0.0,0.0,98,0.00,,,0.00,VWS V14.01,2013-01-13 17:45:00,
2013-01-13 12:51:00,41.0,40.5,29.71,WSW,252,0.0,0.0,98,0.00,,,0.00,VWS V14.01,2013-01-13 17:51:00,
2013-01-13 12:56:00,41.2,40.7,29.71,WSW,253,0.0,0.0,98,0.00,,,0.00,VWS V14.01,2013-01-13 17:56:00,
2013-01-13 13:01:00,41.4,40.8,29.71,WSW,253,0.0,0.0,98,0.00,,,0.00,VWS V14.01,2013-01-13 18:01:00,
2013-01-13 13:06:00,41.5,41.0,29.68,WSW,253,0.0,0.0,98,0.00,,,0.00,VWS V14.01,2013-01-13 18:06:00,
2013-01-13 13:11:00,41.5,41.0,29.68,WSW,253,0.0,0.0,98,0.00,,,0.00,VWS V14.01,2013-01-13 18:11:00,
2013-01-13 13:16:00,41.5,41.0,29.68,WSW,248,0.0,0.0,98,0.00,,,0.00,VWS V14.01,2013-01-13 18:16:00,
2013-01-13 13:21:00,41.7,41.2,29.68,SW,225,0.0,0.0,98,0.00,,,0.00,VWS V14.01,2013-01-13 18:21:00,
2013-01-13 13:26:00,41.7,41.2,29.68,WSW,239,0.0,0.0,98,0.00,,,0.00,VWS V14.01,2013-01-13 18:26:00,
2013-01-13 13:31:00,41.7,41.2,29.68,WSW,258,0.0,0.0,98,0.00,,,0.00,VWS V14.01,2013-01-13 18:31:00,
2013-01-13 13:36:00,41.7,41.2,29.68,SW,234,0.0,0.0,98,0.00,,,0.00,VWS V14.01,2013-01-13 18:36:00,
2013-01-13 13:41:00,41.7,41.2,29.68,SW,229,0.0,0.0,98,0.00,,,0.00,VWS V14.01,2013-01-13 18:41:00,
2013-01-13 13:46:00,41.9,41.4,29.68,SW,220,0.0,0.0,98,0.00,,,0.00,VWS V14.01,2013-01-13 18:46:00,
2013-01-13 13:52:00,41.9,41.4,29.68,West,264,0.0,3.1,98,0.00,,,0.00,VWS V14.01,2013-01-13 18:52:00,
2013-01-13 13:57:00,41.9,41.4,29.68,SSW,205,4.5,4.5,98,0.00,,,0.00,VWS V14.01,2013-01-13 18:57:00,
2013-01-13 14:02:00,42.1,41.6,29.68,SSW,213,0.0,2.2,98,0.00,,,0.00,VWS V14.01,2013-01-13 19:02:00,
2013-01-13 14:07:00,42.3,41.7,29.68,SW,228,0.0,0.0,98,0.00,,,0.00,VWS V14.01,2013-01-13 19:07:00,
2013-01-13 14:12:00,42.3,41.7,29.68,WSW,248,0.0,0.0,98,0.00,,,0.00,VWS V14.01,2013-01-13 19:12:00,
2013-01-13 14:17:00,42.1,41.6,29.68,SW,223,0.0,0.0,98,0.00,,,0.00,VWS V14.01,2013-01-13 19:17:00,
2013-01-13 14:22:00,41.9,41.4,29.68,SSW,200,0.0,0.0,98,0.00,,,0.00,VWS V14.01,2013-01-13 19:22:00,
2013-01-13 14:27:00,42.3,41.7,29.68,SW,229,5.4,5.4,98,0.00,,,0.00,VWS V14.01,2013-01-13 19:27:00,
2013-01-13 14:32:00,42.3,41.7,29.68,SW,222,0.0,0.0,98,0.00,,,0.00,VWS V14.01,2013-01-13 19:32:00,
2013-01-13 14:37:00,42.1,41.6,29.68,SSW,210,5.4,5.4,98,0.00,,,0.00,VWS V14.01,2013-01-13 19:37:00,
2013-01-13 14:42:00,42.1,41.6,29.68,SW,219,12.5,12.5,98,0.00,,,0.00,VWS V14.01,2013-01-13 19:42:00,
2013-01-13 14:47:00,42.1,41.6,29.68,WSW,251,0.0,0.0,98,0.00,,,0.00,VWS V14.01,2013-01-13 19:47:00,
2013-01-13 14:53:00,42.3,41.7,29.68,SSW,207,10.7,10.7,98,0.00,,,0.00,VWS V14.01,2013-01-13 19:53:00,
2013-01-13 14:58:00,42.3,41.7,29.68,SSW,211,7.2,7.2,98,0.00,,,0.00,VWS V14.01,2013-01-13 19:58:00,
2013-01-13 15:03:00,42.3,41.7,29.68,WSW,252,4.5,5.8,98,0.00,,,0.00,VWS V14.01,2013-01-13 20:03:00,
2013-01-13 15:08:00,42.3,41.7,29.68,SW,226,6.3,6.3,98,0.00,,,0.00,VWS V14.01,2013-01-13 20:08:00,
2013-01-13 15:13:00,42.1,41.6,29.68,West,260,6.3,7.6,98,0.00,,,0.00,VWS V14.01,2013-01-13 20:13:00,
2013-01-13 15:18:00,42.1,41.6,29.68,SSE,154,8.1,8.1,98,0.00,,,0.00,VWS V14.01,2013-01-13 20:18:00,
2013-01-13 15:23:00,42.3,41.7,29.68,WSW,241,7.2,7.2,98,0.00,,,0.00,VWS V14.01,2013-01-13 20:23:00,
2013-01-13 15:28:00,42.4,41.9,29.68,SW,236,6.3,6.3,98,0.00,,,0.00,VWS V14.01,2013-01-13 20:28:00,
2013-01-13 15:33:00,42.3,41.7,29.65,SW,230,6.3,6.3,98,0.00,,,0.00,VWS V14.01,2013-01-13 20:33:00,
2013-01-13 15:38:00,42.1,41.6,29.65,WSW,239,7.2,7.2,98,0.00,,,0.00,VWS V14.01,2013-01-13 20:38:00,
2013-01-13 15:43:00,42.1,41.6,29.65,SW,228,6.3,6.3,98,0.00,,,0.00,VWS V14.01,2013-01-13 20:43:00,
2013-01-13 15:48:00,42.1,41.6,29.65,SW,225,0.0,0.0,98,0.00,,,0.00,VWS V14.01,2013-01-13 20:48:00,
2013-01-13 15:54:00,41.9,41.4,29.65,WSW,238,0.0,3.6,98,0.00,,,0.00,VWS V14.01,2013-01-13 20:54:00,
2013-01-13 15:59:00,42.1,41.6,29.65,WSW,253,5.4,5.4,98,0.00,,,0.00,VWS V14.01,2013-01-13 20:59:00,
2013-01-13 16:04:00,42.1,41.6,29.65,WSW,257,5.4,5.4,98,0.00,,,0.00,VWS V14.01,2013-01-13 21:04:00,
2013-01-13 16:09:00,42.1,41.6,29.65,West,264,4.5,4.5,98,0.00,,,0.00,VWS V14.01,2013-01-13 21:09:00,
2013-01-13 16:14:00,41.9,41.4,29.65,WSW,246,0.0,0.0,98,0.00,,,0.00,VWS V14.01,2013-01-13 21:14:00,
2013-01-13 16:19:00,41.7,41.2,29.65,WSW,246,0.0,0.0,98,0.00,,,0.00,VWS V14.01,2013-01-13 21:19:00,
2013-01-13 16:24:00,41.7,41.2,29.65,WSW,244,0.0,0.0,98,0.00,,,0.00,VWS V14.01,2013-01-13 21:24:00,
2013-01-13 16:29:00,41.9,41.4,29.65,SSE,166,0.0,0.0,98,0.00,,,0.00,VWS V14.01,2013-01-13 21:29:00,
2013-01-13 16:34:00,41.9,41.4,29.65,SW,232,0.0,0.0,98,0.00,,,0.00,VWS V14.01,2013-01-13 21:34:00,
2013-01-13 16:39:00,41.9,41.4,29.65,SW,232,0.0,0.0,98,0.00,,,0.00,VWS V14.01,2013-01-13 21:39:00,
2013-01-13 16:44:00,41.9,41.4,29.65,SW,214,0.0,0.0,98,0.00,,,0.00,VWS V14.01,2013-01-13 21:44:00,
2013-01-13 16:50:00,42.1,41.6,29.65,South,172,0.0,0.0,98,0.00,,,0.00,VWS V14.01,2013-01-13 21:50:00,
2013-01-13 16:55:00,41.9,41.4,29.65,SW,220,0.0,0.0,98,0.00,,,0.00,VWS V14.01,2013-01-13 21:55:00,
2013-01-13 17:00:00,41.7,41.2,29.65,SW,231,0.0,0.0,98,0.00,,,0.00,VWS V14.01,2013-01-13 22:00:00,
2013-01-13 17:05:00,41.5,41.0,29.65,SSE,167,5.4,5.4,98,0.00,,,0.00,VWS V14.01,2013-01-13 22:05:00,
2013-01-13 17:10:00,41.7,41.2,29.65,SW,217,0.0,0.0,98,0.00,,,0.00,VWS V14.01,2013-01-13 22:10:00,
2013-01-13 17:15:00,41.7,41.2,29.65,SW,233,0.0,0.0,98,0.00,,,0.00,VWS V14.01,2013-01-13 22:15:00,
2013-01-13 17:20:00,41.7,41.2,29.65,WSW,243,0.0,0.0,98,0.00,,,0.00,VWS V14.01,2013-01-13 22:20:00,
2013-01-13 17:25:00,41.7,41.2,29.65,SW,234,0.0,0.0,98,0.00,,,0.00,VWS V14.01,2013-01-13 22:25:00,
2013-01-13 17:30:00,41.7,41.2,29.65,SW,229,0.0,0.0,98,0.00,,,0.00,VWS V14.01,2013-01-13 22:30:00,
2013-01-13 17:35:00,41.7,41.2,29.62,SSE,161,0.0,0.0,98,0.00,,,0.00,VWS V14.01,2013-01-13 22:35:00,
2013-01-13 17:40:00,41.7,41.2,29.62,SSE,166,0.0,0.0,98,0.00,,,0.00,VWS V14.01,2013-01-13 22:40:00,
2013-01-13 17:45:00,41.9,41.4,29.62,SSE,166,0.0,0.0,98,0.00,,,0.00,VWS V14.01,2013-01-13 22:45:00,
2013-01-13 17:50:00,41.7,41.2,29.65,SSW,209,0.0,3.6,98,0.00,,,0.00,VWS V14.01,2013-01-13 22:50:00,
2013-01-13 17:56:00,41.7,41.2,29.65,WSW,252,0.0,2.7,98,0.00,,,0.00,VWS V14.01,2013-01-13 22:56:00,
2013-01-13 18:01:00,41.7,41.2,29.65,SW,234,0.0,2.7,98,0.00,,,0.00,VWS V14.01,2013-01-13 23:01:00,
2013-01-13 18:06:00,42.1,41.6,29.65,SW,217,0.0,0.0,98,0.00,,,0.00,VWS V14.01,2013-01-13 23:06:00,
2013-01-13 18:11:00,42.3,41.7,29.65,SSW,212,4.5,4.5,98,0.00,,,0.00,VWS V14.01,2013-01-13 23:11:00,
2013-01-13 18:16:00,42.3,41.7,29.65,SSW,210,0.0,0.0,98,0.00,,,0.00,VWS V14.01,2013-01-13 23:16:00,
2013-01-13 18:21:00,42.4,41.9,29.65,WSW,249,0.0,2.7,98,0.00,,,0.00,VWS V14.01,2013-01-13 23:21:00,
2013-01-13 18:26:00,42.3,41.7,29.65,WSW,243,5.4,5.4,98,0.00,,,0.00,VWS V14.01,2013-01-13 23:26:00,
2013-01-13 18:31:00,42.3,41.7,29.65,SSW,200,5.4,5.4,98,0.00,,,0.00,VWS V14.01,2013-01-13 23:31:00,
2013-01-13 18:36:00,42.3,41.7,29.65,SW,227,0.0,0.0,98,0.00,,,0.00,VWS V14.01,2013-01-13 23:36:00,
2013-01-13 18:41:00,42.3,41.7,29.65,SW,227,0.0,0.0,98,0.00,,,0.00,VWS V14.01,2013-01-13 23:41:00,
2013-01-13 18:46:00,42.3,41.7,29.65,SW,226,0.0,0.0,98,0.00,,,0.00,VWS V14.01,2013-01-13 23:46:00,
2013-01-13 18:52:00,42.3,41.7,29.65,SW,227,0.0,0.0,98,0.00,,,0.00,VWS V14.01,2013-01-13 23:52:00,
2013-01-13 18:57:00,42.3,41.7,29.65,SW,227,0.0,0.0,98,0.00,,,0.00,VWS V14.01,2013-01-13 23:57:00,
2013-01-13 19:02:00,42.3,41.7,29.62,SW,227,0.0,0.0,98,0.00,,,0.00,VWS V14.01,2013-01-14 00:02:00,
2013-01-13 19:07:00,42.1,41.6,29.62,SW,227,0.0,0.0,98,0.00,,,0.00,VWS V14.01,2013-01-14 00:07:00,
2013-01-13 19:12:00,42.1,41.6,29.62,SW,227,0.0,0.0,98,0.00,,,0.00,VWS V14.01,2013-01-14 00:12:00,
2013-01-13 19:17:00,41.7,41.2,29.62,SW,227,0.0,0.0,98,0.00,,,0.00,VWS V14.01,2013-01-14 00:17:00,
2013-01-13 19:22:00,41.2,40.7,29.62,SW,227,0.0,0.0,98,0.00,,,0.00,VWS V14.01,2013-01-14 00:22:00,
2013-01-13 19:27:00,40.6,40.1,29.62,WSW,256,0.0,0.0,98,0.00,,,0.00,VWS V14.01,2013-01-14 00:27:00,
2013-01-13 19:32:00,40.8,40.3,29.62,WSW,256,0.0,0.0,98,0.00,,,0.00,VWS V14.01,2013-01-14 00:32:00,
2013-01-13 19:37:00,41.0,40.5,29.62,WSW,245,4.5,4.5,98,0.00,,,0.00,VWS V14.01,2013-01-14 00:37:00,
2013-01-13 19:43:00,41.2,40.7,29.62,SW,234,0.0,0.0,98,0.00,,,0.00,VWS V14.01,2013-01-14 00:43:00,
2013-01-13 19:48:00,41.7,41.2,29.62,WSW,248,5.4,5.4,98,0.00,,,0.00,VWS V14.01,2013-01-14 00:48:00,
2013-01-13 19:53:00,42.3,41.7,29.62,SW,233,0.0,0.0,98,0.00,,,0.00,VWS V14.01,2013-01-14 00:53:00,
2013-01-13 19:58:00,42.8,42.3,29.62,SSW,213,0.0,0.0,98,0.00,,,0.00,VWS V14.01,2013-01-14 00:58:00,
2013-01-13 20:03:00,43.0,42.5,29.62,WSW,253,4.5,4.5,98,0.00,,,0.00,VWS V14.01,2013-01-14 01:03:00,
2013-01-13 20:08:00,43.3,42.8,29.62,SW,224,0.0,0.0,98,0.00,,,0.00,VWS V14.01,2013-01-14 01:08:00,
2013-01-13 20:13:00,43.7,43.2,29.62,WSW,250,0.0,0.0,98,0.00,,,0.00,VWS V14.01,2013-01-14 01:13:00,
2013-01-13 20:18:00,44.1,43.5,29.62,SW,231,5.4,5.4,98,0.00,,,0.00,VWS V14.01,2013-01-14 01:18:00,
2013-01-13 20:23:00,44.6,44.1,29.62,WSW,254,0.0,0.0,98,0.00,,,0.00,VWS V14.01,2013-01-14 01:23:00,
2013-01-13 20:28:00,44.2,43.7,29.62,WSW,239,4.5,4.5,98,0.00,,,0.00,VWS V14.01,2013-01-14 01:28:00,
2013-01-13 20:33:00,44.2,43.7,29.62,WSW,256,0.0,0.0,98,0.00,,,0.00,VWS V14.01,2013-01-14 01:33:00,
2013-01-13 20:38:00,44.6,44.1,29.62,WSW,240,0.0,0.0,98,0.00,,,0.00,VWS V14.01,2013-01-14 01:38:00,
2013-01-13 20:43:00,44.6,44.1,29.62,WSW,240,0.0,0.0,98,0.00,,,0.00,VWS V14.01,2013-01-14 01:43:00,
2013-01-13 20:49:00,44.6,44.1,29.59,SW,221,0.0,0.0,98,0.00,,,0.00,VWS V14.01,2013-01-14 01:49:00,
2013-01-13 20:54:00,44.8,44.2,29.59,SW,221,0.0,0.0,98,0.00,,,0.00,VWS V14.01,2013-01-14 01:54:00,
2013-01-13 20:59:00,44.8,44.2,29.59,SW,233,0.0,0.0,98,0.00,,,0.00,VWS V14.01,2013-01-14 01:59:00,
2013-01-13 21:04:00,45.1,44.6,29.59,SSW,210,0.0,0.0,98,0.00,,,0.00,VWS V14.01,2013-01-14 02:04:00,
2013-01-13 21:09:00,45.7,45.2,29.59,WSW,240,0.0,2.7,98,0.00,,,0.00,VWS V14.01,2013-01-14 02:09:00,
2013-01-13 21:14:00,45.9,45.3,29.59,WSW,250,8.1,8.1,98,0.00,,,0.00,VWS V14.01,2013-01-14 02:14:00,
2013-01-13 21:19:00,45.5,45.0,29.59,WSW,252,7.2,7.2,98,0.00,,,0.00,VWS V14.01,2013-01-14 02:19:00,
2013-01-13 21:24:00,45.5,45.0,29.59,SW,227,0.0,0.0,98,0.00,,,0.00,VWS V14.01,2013-01-14 02:24:00,
2013-01-13 21:29:00,45.5,45.0,29.59,WSW,243,0.0,2.2,98,0.00,,,0.00,VWS V14.01,2013-01-14 02:29:00,
2013-01-13 21:34:00,45.7,45.2,29.59,SW,229,6.3,6.3,98,0.00,,,0.00,VWS V14.01,2013-01-14 02:34:00,
2013-01-13 21:39:00,45.5,45.0,29.59,WSW,250,7.2,7.2,98,0.00,,,0.00,VWS V14.01,2013-01-14 02:39:00,
2013-01-13 21:44:00,45.5,45.0,29.59,WSW,242,0.0,0.0,98,0.00,,,0.00,VWS V14.01,2013-01-14 02:44:00,
2013-01-13 21:49:00,45.5,45.0,29.59,SW,214,5.4,5.4,98,0.00,,,0.00,VWS V14.01,2013-01-14 02:49:00,
2013-01-13 21:54:00,45.7,45.2,29.59,SW,219,5.4,5.4,98,0.00,,,0.00,VWS V14.01,2013-01-14 02:54:00,
2013-01-13 21:59:00,46.0,45.5,29.59,SW,232,4.5,6.7,98,0.00,,,0.00,VWS V14.01,2013-01-14 02:59:00,
2013-01-13 22:04:00,45.9,45.3,29.56,WSW,245,0.0,2.7,98,0.00,,,0.00,VWS V14.01,2013-01-14 03:04:00,
2013-01-13 22:09:00,45.9,45.3,29.56,WSW,243,6.3,6.3,98,0.00,,,0.00,VWS V14.01,2013-01-14 03:09:00,
2013-01-13 22:14:00,45.5,45.0,29.56,WSW,247,0.0,3.6,98,0.00,,,0.00,VWS V14.01,2013-01-14 03:14:00,
2013-01-13 22:20:00,45.7,45.2,29.59,WSW,246,6.3,6.3,98,0.00,,,0.00,VWS V14.01,2013-01-14 03:20:00,
2013-01-13 22:25:00,45.7,45.2,29.59,WSW,241,0.0,3.1,98,0.00,,,0.00,VWS V14.01,2013-01-14 03:25:00,
2013-01-13 22:30:00,45.5,45.0,29.59,West,279,6.3,6.3,98,0.00,,,0.00,VWS V14.01,2013-01-14 03:30:00,
2013-01-13 22:35:00,45.9,45.3,29.56,SW,219,4.5,4.5,98,0.00,,,0.00,VWS V14.01,2013-01-14 03:35:00,
2013-01-13 22:40:00,45.7,45.2,29.56,WSW,245,4.5,4.5,98,0.00,,,0.00,VWS V14.01,2013-01-14 03:40:00,
2013-01-13 22:45:00,45.9,45.3,29.56,South,174,4.5,4.5,98,0.00,,,0.00,VWS V14.01,2013-01-14 03:45:00,
2013-01-13 22:50:00,46.2,45.7,29.56,SW,233,0.0,4.9,98,0.00,,,0.00,VWS V14.01,2013-01-14 03:50:00,
2013-01-13 22:55:00,46.4,45.9,29.56,SW,230,5.4,5.4,98,0.00,,,0.00,VWS V14.01,2013-01-14 03:55:00,
2013-01-13 23:00:00,46.4,45.9,29.56,SSW,206,0.0,0.0,98,0.00,,,0.00,VWS V14.01,2013-01-14 04:00:00,
2013-01-13 23:05:00,46.0,45.5,29.53,WSW,250,8.1,8.1,98,0.00,,,0.00,VWS V14.01,2013-01-14 04:05:00,
2013-01-13 23:10:00,46.2,45.7,29.53,SW,235,5.4,5.4,98,0.00,,,0.00,VWS V14.01,2013-01-14 04:10:00,
2013-01-13 23:15:00,46.2,45.7,29.53,WSW,253,6.3,6.3,98,0.00,,,0.00,VWS V14.01,2013-01-14 04:15:00,
2013-01-13 23:20:00,46.0,45.5,29.53,SW,235,6.3,6.3,98,0.00,,,0.00,VWS V14.01,2013-01-14 04:20:00,
2013-01-13 23:25:00,46.0,45.5,29.53,WSW,252,6.3,6.3,98,0.00,,,0.00,VWS V14.01,2013-01-14 04:25:00,
2013-01-13 23:31:00,45.9,45.3,29.53,WSW,243,4.5,4.5,98,0.00,,,0.00,VWS V14.01,2013-01-14 04:31:00,
2013-01-13 23:36:00,45.9,45.3,29.56,WSW,241,6.3,6.3,98,0.00,,,0.00,VWS V14.01,2013-01-14 04:36:00,
2013-01-13 23:41:00,45.9,45.3,29.56,WSW,248,4.5,4.5,98,0.00,,,0.00,VWS V14.01,2013-01-14 04:41:00,
2013-01-13 23:46:00,46.0,45.5,29.56,WSW,239,4.5,4.5,98,0.00,,,0.00,VWS V14.01,2013-01-14 04:46:00,
2013-01-13 23:51:00,46.0,45.5,29.56,WSW,241,0.0,4.0,98,0.00,,,0.00,VWS V14.01,2013-01-14 04:51:00,
2013-01-13 23:56:00,46.2,45.7,29.56,WSW,250,0.0,0.0,98,0.00,,,0.00,VWS V14.01,2013-01-14 04:56:00,